Strona główna
METAR-TAF:

METAR-TAF

Lotnisko :

Katowice, Polska

Port lotniczy Katowice-Pyrzowice

Szerokość geograficzna: 50-28-27N, Długość geograficzna: 019-04-48E, wysokość: 284 m

Aktualna obserwacja pogody

Raport powstał 18 minut temu, godzina 16:30 UTC
Wiatr 10 kt od północny zachód
Temperatura 19°C
Wilgotność 52%
Ciśnienie 1017 hPa
Widzialność 10 km lub więcej
Mało chmury na wysokości 4400 ft

METAR: EPKT 261630Z 31010KT 9999 FEW044 19/09 Q1017

czas: 18:48 (16:48 UTC)

Prognoza

Raport powstał 5 godziny i 18 minut temu, godzina 11:30 UTC
Prognoza ważna od 26 godzina 12 UTC do 27 godzina 12 UTC
Wiatr 10 kt od zachodnio-północny zachód
Widzialność 10 km lub więcej
Rozproszone chmury na wysokości 3000 ft
Przejściowo
od 26 godzina 17 UTC do 26 godzina 22 UTC
Rozproszone chmury na wysokości 3000 ft, Cumulonimbus.
Stopniowe zmiany
od 26 godzina 22 UTC do 27 godzina 01 UTC
Wiatr 7 kt od północno-północny wschód

TAF: EPKT 261130Z 2612/2712 30010KT 9999 SCT030 TEMPO 2617/2622 SCT030CB BECMG 2622/2701 03007KT

Obserwacja i prognoza pogody dla ponad 4000 lotnisk (raport METAR i TAF).

Dostępne stacje oznaczono żółtymi i czerwonymi punktami na mapie.

Najedź kursorem aby zobaczyć nazwę stacji.

Kliknij aby zobaczyć obserwacje i prognozy pogody.

Aby zmienić mapę: kliknij na zielony przycisk z czarnym krzyżykiem, aby powiększyć; na zielony przycisk z myślnikiem, aby pomniejszyć; na zielone strzałki, aby przejść do map sąsiednich.


METAR-TAF: